sensor_id;sensor_type;location;lat;lon;timestamp;P1;durP1;ratioP1;P2;durP2;ratioP2
10333;SDS011;5212;47.892;16.406;2022-10-15T02:17:04;30.60;;;25.37;;
10333;SDS011;5212;47.892;16.406;2022-10-15T06:32:20;33.93;;;28.33;;
10333;SDS011;5212;47.892;16.406;2022-10-15T06:47:44;36.80;;;30.37;;
10333;SDS011;5212;47.892;16.406;2022-10-15T06:50:11;39.20;;;32.33;;
10333;SDS011;5212;47.892;16.406;2022-10-15T06:52:38;41.17;;;32.97;;
10333;SDS011;5212;47.892;16.406;2022-10-15T06:55:05;40.90;;;33.53;;
10333;SDS011;5212;47.892;16.406;2022-10-15T06:57:33;42.23;;;33.57;;
10333;SDS011;5212;47.892;16.406;2022-10-15T07:00:00;40.67;;;32.57;;
10333;SDS011;5212;47.892;16.406;2022-10-15T07:02:27;35.03;;;29.90;;
10333;SDS011;5212;47.892;16.406;2022-10-15T07:04:55;35.57;;;29.63;;
10333;SDS011;5212;47.892;16.406;2022-10-15T07:07:22;36.00;;;30.27;;
10333;SDS011;5212;47.892;16.406;2022-10-15T07:09:49;34.67;;;29.43;;
10333;SDS011;5212;47.892;16.406;2022-10-15T07:12:17;36.67;;;29.33;;
10333;SDS011;5212;47.892;16.406;2022-10-15T07:14:46;33.67;;;27.03;;
10333;SDS011;5212;47.892;16.406;2022-10-15T07:17:13;33.47;;;28.80;;
10333;SDS011;5212;47.892;16.406;2022-10-15T07:19:40;34.43;;;29.43;;
10333;SDS011;5212;47.892;16.406;2022-10-15T07:22:09;35.33;;;29.40;;
10333;SDS011;5212;47.892;16.406;2022-10-15T07:24:36;32.17;;;27.43;;
10333;SDS011;5212;47.892;16.406;2022-10-15T07:27:03;33.67;;;28.27;;
10333;SDS011;5212;47.892;16.406;2022-10-15T07:29:30;31.73;;;26.70;;
10333;SDS011;5212;47.892;16.406;2022-10-15T07:31:58;39.77;;;33.00;;
10333;SDS011;5212;47.892;16.406;2022-10-15T07:34:25;37.33;;;31.03;;
10333;SDS011;5212;47.892;16.406;2022-10-15T07:36:52;36.07;;;31.00;;
10333;SDS011;5212;47.892;16.406;2022-10-15T07:39:20;40.50;;;32.40;;
10333;SDS011;5212;47.892;16.406;2022-10-15T07:41:47;37.80;;;30.73;;
10333;SDS011;5212;47.892;16.406;2022-10-15T07:44:14;42.97;;;34.00;;
10333;SDS011;5212;47.892;16.406;2022-10-15T07:46:40;39.53;;;31.90;;
10333;SDS011;5212;47.892;16.406;2022-10-15T07:49:07;41.53;;;32.97;;
10333;SDS011;5212;47.892;16.406;2022-10-15T07:51:35;40.27;;;32.63;;
10333;SDS011;5212;47.892;16.406;2022-10-15T07:54:02;38.63;;;32.00;;
10333;SDS011;5212;47.892;16.406;2022-10-15T07:56:31;39.53;;;32.53;;
10333;SDS011;5212;47.892;16.406;2022-10-15T07:58:58;39.43;;;31.63;;
10333;SDS011;5212;47.892;16.406;2022-10-15T08:01:25;36.77;;;30.50;;
10333;SDS011;5212;47.892;16.406;2022-10-15T08:03:51;35.47;;;29.90;;
10333;SDS011;5212;47.892;16.406;2022-10-15T08:06:18;35.33;;;29.63;;
10333;SDS011;5212;47.892;16.406;2022-10-15T08:08:45;41.20;;;32.17;;
10333;SDS011;5212;47.892;16.406;2022-10-15T08:11:13;41.07;;;32.30;;
10333;SDS011;5212;47.892;16.406;2022-10-15T08:13:43;34.40;;;28.67;;
10333;SDS011;5212;47.892;16.406;2022-10-15T08:16:12;42.73;;;33.63;;
10333;SDS011;5212;47.892;16.406;2022-10-15T08:18:39;38.87;;;30.77;;
10333;SDS011;5212;47.892;16.406;2022-10-15T08:21:06;33.60;;;28.97;;
10333;SDS011;5212;47.892;16.406;2022-10-15T08:23:34;36.63;;;28.53;;
10333;SDS011;5212;47.892;16.406;2022-10-15T08:26:01;34.00;;;28.17;;
10333;SDS011;5212;47.892;16.406;2022-10-15T08:28:29;30.87;;;25.83;;
10333;SDS011;5212;47.892;16.406;2022-10-15T08:30:58;33.10;;;27.83;;
10333;SDS011;5212;47.892;16.406;2022-10-15T08:33:25;32.67;;;28.07;;
10333;SDS011;5212;47.892;16.406;2022-10-15T08:35:53;33.17;;;27.10;;
10333;SDS011;5212;47.892;16.406;2022-10-15T08:38:20;35.17;;;28.87;;
10333;SDS011;5212;47.892;16.406;2022-10-15T08:40:47;33.23;;;28.07;;
10333;SDS011;5212;47.892;16.406;2022-10-15T08:43:16;35.33;;;28.93;;
10333;SDS011;5212;47.892;16.406;2022-10-15T08:45:47;36.73;;;30.73;;
10333;SDS011;5212;47.892;16.406;2022-10-15T08:48:18;35.30;;;29.67;;
10333;SDS011;5212;47.892;16.406;2022-10-15T08:50:51;35.03;;;29.67;;
10333;SDS011;5212;47.892;16.406;2022-10-15T08:53:21;35.03;;;28.70;;
10333;SDS011;5212;47.892;16.406;2022-10-15T08:55:49;32.40;;;27.30;;
10333;SDS011;5212;47.892;16.406;2022-10-15T08:58:20;30.90;;;26.47;;
10333;SDS011;5212;47.892;16.406;2022-10-15T09:00:51;36.53;;;29.90;;
10333;SDS011;5212;47.892;16.406;2022-10-15T09:06:08;32.13;;;27.07;;
10333;SDS011;5212;47.892;16.406;2022-10-15T09:08:41;38.30;;;31.43;;
10333;SDS011;5212;47.892;16.406;2022-10-15T09:11:15;35.73;;;29.70;;
10333;SDS011;5212;47.892;16.406;2022-10-15T09:13:44;30.50;;;26.90;;
10333;SDS011;5212;47.892;16.406;2022-10-15T09:16:13;35.00;;;29.37;;
10333;SDS011;5212;47.892;16.406;2022-10-15T09:18:43;31.57;;;26.37;;
10333;SDS011;5212;47.892;16.406;2022-10-15T09:21:12;33.60;;;27.97;;
10333;SDS011;5212;47.892;16.406;2022-10-15T09:23:40;34.97;;;29.57;;
10333;SDS011;5212;47.892;16.406;2022-10-15T09:26:11;31.47;;;26.70;;
10333;SDS011;5212;47.892;16.406;2022-10-15T09:28:51;35.00;;;28.30;;
10333;SDS011;5212;47.892;16.406;2022-10-15T09:31:24;33.40;;;27.47;;
10333;SDS011;5212;47.892;16.406;2022-10-15T09:33:58;44.30;;;34.57;;
10333;SDS011;5212;47.892;16.406;2022-10-15T09:36:32;35.00;;;29.30;;
10333;SDS011;5212;47.892;16.406;2022-10-15T09:39:04;35.33;;;29.30;;
10333;SDS011;5212;47.892;16.406;2022-10-15T09:41:45;34.07;;;28.80;;
10333;SDS011;5212;47.892;16.406;2022-10-15T09:44:18;30.67;;;26.83;;
10333;SDS011;5212;47.892;16.406;2022-10-15T09:46:48;29.97;;;26.73;;
10333;SDS011;5212;47.892;16.406;2022-10-15T09:49:17;29.53;;;25.17;;
10333;SDS011;5212;47.892;16.406;2022-10-15T09:51:47;27.57;;;24.67;;
10333;SDS011;5212;47.892;16.406;2022-10-15T09:54:20;30.70;;;24.90;;
10333;SDS011;5212;47.892;16.406;2022-10-15T09:56:50;32.30;;;27.20;;
10333;SDS011;5212;47.892;16.406;2022-10-15T09:59:20;28.23;;;25.17;;
10333;SDS011;5212;47.892;16.406;2022-10-15T10:01:55;39.20;;;31.87;;
10333;SDS011;5212;47.892;16.406;2022-10-15T10:04:26;50.40;;;39.13;;
10333;SDS011;5212;47.892;16.406;2022-10-15T10:36:32;30.13;;;26.03;;
10333;SDS011;5212;47.892;16.406;2022-10-15T11:38:33;26.80;;;23.67;;
10333;SDS011;5212;47.892;16.406;2022-10-15T11:41:12;26.60;;;23.70;;
10333;SDS011;5212;47.892;16.406;2022-10-15T11:43:50;25.10;;;22.40;;
10333;SDS011;5212;47.892;16.406;2022-10-15T11:46:24;28.77;;;25.20;;
10333;SDS011;5212;47.892;16.406;2022-10-15T11:48:57;30.50;;;27.17;;
10333;SDS011;5212;47.892;16.406;2022-10-15T11:51:33;27.63;;;23.63;;
10333;SDS011;5212;47.892;16.406;2022-10-15T11:54:17;27.60;;;23.77;;
10333;SDS011;5212;47.892;16.406;2022-10-15T11:56:49;29.23;;;25.13;;
10333;SDS011;5212;47.892;16.406;2022-10-15T11:59:21;28.60;;;25.40;;
10333;SDS011;5212;47.892;16.406;2022-10-15T12:01:53;28.97;;;24.77;;
10333;SDS011;5212;47.892;16.406;2022-10-15T12:04:26;27.40;;;24.40;;
10333;SDS011;5212;47.892;16.406;2022-10-15T12:06:56;29.77;;;25.17;;
10333;SDS011;5212;47.892;16.406;2022-10-15T12:09:27;30.50;;;27.23;;
10333;SDS011;5212;47.892;16.406;2022-10-15T12:11:58;29.30;;;26.10;;
10333;SDS011;5212;47.892;16.406;2022-10-15T12:14:30;28.63;;;25.50;;
10333;SDS011;5212;47.892;16.406;2022-10-15T12:17:02;28.43;;;25.03;;
10333;SDS011;5212;47.892;16.406;2022-10-15T12:19:35;30.10;;;26.90;;
10333;SDS011;5212;47.892;16.406;2022-10-15T12:22:04;32.73;;;27.80;;
10333;SDS011;5212;47.892;16.406;2022-10-15T12:24:50;32.20;;;28.37;;
10333;SDS011;5212;47.892;16.406;2022-10-15T12:27:20;32.40;;;28.27;;
10333;SDS011;5212;47.892;16.406;2022-10-15T12:29:48;33.33;;;29.40;;
10333;SDS011;5212;47.892;16.406;2022-10-15T12:32:21;31.23;;;27.80;;
10333;SDS011;5212;47.892;16.406;2022-10-15T12:34:52;28.40;;;25.17;;
10333;SDS011;5212;47.892;16.406;2022-10-15T12:37:21;28.30;;;24.90;;
10333;SDS011;5212;47.892;16.406;2022-10-15T12:39:54;32.37;;;28.67;;
10333;SDS011;5212;47.892;16.406;2022-10-15T12:42:24;31.07;;;26.50;;
10333;SDS011;5212;47.892;16.406;2022-10-15T12:44:53;27.83;;;24.83;;
10333;SDS011;5212;47.892;16.406;2022-10-15T12:47:44;30.20;;;26.40;;
10333;SDS011;5212;47.892;16.406;2022-10-15T12:50:16;30.53;;;27.20;;
10333;SDS011;5212;47.892;16.406;2022-10-15T12:52:52;29.03;;;25.67;;
10333;SDS011;5212;47.892;16.406;2022-10-15T12:55:24;32.80;;;28.20;;
10333;SDS011;5212;47.892;16.406;2022-10-15T12:57:53;33.77;;;29.10;;
10333;SDS011;5212;47.892;16.406;2022-10-15T13:00:32;30.13;;;27.00;;
10333;SDS011;5212;47.892;16.406;2022-10-15T13:03:14;28.10;;;25.10;;
10333;SDS011;5212;47.892;16.406;2022-10-15T13:06:12;28.50;;;24.93;;
10333;SDS011;5212;47.892;16.406;2022-10-15T13:08:42;30.07;;;26.80;;
10333;SDS011;5212;47.892;16.406;2022-10-15T13:11:17;29.13;;;25.67;;
10333;SDS011;5212;47.892;16.406;2022-10-15T13:13:46;29.97;;;26.77;;
10333;SDS011;5212;47.892;16.406;2022-10-15T13:16:16;29.00;;;25.90;;
10333;SDS011;5212;47.892;16.406;2022-10-15T13:18:46;29.43;;;26.30;;
10333;SDS011;5212;47.892;16.406;2022-10-15T13:21:14;30.57;;;25.90;;
10333;SDS011;5212;47.892;16.406;2022-10-15T13:23:43;32.30;;;28.80;;
10333;SDS011;5212;47.892;16.406;2022-10-15T13:26:14;33.03;;;28.90;;
10333;SDS011;5212;47.892;16.406;2022-10-15T13:28:50;29.80;;;26.63;;
10333;SDS011;5212;47.892;16.406;2022-10-15T13:31:20;29.77;;;26.57;;
10333;SDS011;5212;47.892;16.406;2022-10-15T13:33:50;28.87;;;25.83;;
10333;SDS011;5212;47.892;16.406;2022-10-15T13:36:20;34.03;;;30.43;;
10333;SDS011;5212;47.892;16.406;2022-10-15T13:38:50;30.93;;;26.90;;
10333;SDS011;5212;47.892;16.406;2022-10-15T13:41:29;29.97;;;26.67;;
10333;SDS011;5212;47.892;16.406;2022-10-15T13:44:01;28.77;;;25.67;;
10333;SDS011;5212;47.892;16.406;2022-10-15T13:49:08;31.20;;;26.27;;
10333;SDS011;5212;47.892;16.406;2022-10-15T13:51:38;27.67;;;24.60;;
10333;SDS011;5212;47.892;16.406;2022-10-15T13:54:07;27.70;;;24.70;;
10333;SDS011;5212;47.892;16.406;2022-10-15T13:56:37;27.20;;;24.20;;
10333;SDS011;5212;47.892;16.406;2022-10-15T13:59:11;25.30;;;22.57;;
10333;SDS011;5212;47.892;16.406;2022-10-15T14:01:43;26.00;;;23.20;;
10333;SDS011;5212;47.892;16.406;2022-10-15T14:04:13;28.40;;;25.20;;
10333;SDS011;5212;47.892;16.406;2022-10-15T14:06:41;30.77;;;26.50;;
10333;SDS011;5212;47.892;16.406;2022-10-15T14:09:18;27.20;;;24.23;;
10333;SDS011;5212;47.892;16.406;2022-10-15T14:11:49;26.33;;;23.53;;
10333;SDS011;5212;47.892;16.406;2022-10-15T14:14:26;28.80;;;24.40;;
10333;SDS011;5212;47.892;16.406;2022-10-15T14:16:54;25.63;;;22.90;;
10333;SDS011;5212;47.892;16.406;2022-10-15T14:19:22;32.00;;;25.57;;
10333;SDS011;5212;47.892;16.406;2022-10-15T14:21:51;28.40;;;24.37;;
10333;SDS011;5212;47.892;16.406;2022-10-15T14:24:18;26.77;;;23.23;;
10333;SDS011;5212;47.892;16.406;2022-10-15T14:26:46;26.50;;;23.77;;
10333;SDS011;5212;47.892;16.406;2022-10-15T14:29:18;28.47;;;25.37;;
10333;SDS011;5212;47.892;16.406;2022-10-15T14:31:47;32.67;;;27.27;;
10333;SDS011;5212;47.892;16.406;2022-10-15T14:34:25;30.27;;;26.53;;
10333;SDS011;5212;47.892;16.406;2022-10-15T14:36:55;28.80;;;25.30;;
10333;SDS011;5212;47.892;16.406;2022-10-15T14:39:26;29.57;;;25.80;;
10333;SDS011;5212;47.892;16.406;2022-10-15T14:41:56;29.03;;;24.93;;
10333;SDS011;5212;47.892;16.406;2022-10-15T14:44:25;28.23;;;25.23;;
10333;SDS011;5212;47.892;16.406;2022-10-15T14:47:04;28.17;;;25.17;;
10333;SDS011;5212;47.892;16.406;2022-10-15T14:49:32;28.63;;;25.57;;
10333;SDS011;5212;47.892;16.406;2022-10-15T14:52:02;32.40;;;27.07;;
10333;SDS011;5212;47.892;16.406;2022-10-15T14:54:32;32.47;;;28.03;;
10333;SDS011;5212;47.892;16.406;2022-10-15T14:57:01;30.20;;;25.37;;
10333;SDS011;5212;47.892;16.406;2022-10-15T14:59:31;35.20;;;30.83;;
10333;SDS011;5212;47.892;16.406;2022-10-15T15:02:01;34.77;;;27.73;;
10333;SDS011;5212;47.892;16.406;2022-10-15T15:04:33;32.53;;;27.30;;
10333;SDS011;5212;47.892;16.406;2022-10-15T15:07:12;34.30;;;28.47;;
10333;SDS011;5212;47.892;16.406;2022-10-15T15:09:41;30.83;;;27.07;;
10333;SDS011;5212;47.892;16.406;2022-10-15T15:22:24;31.17;;;24.73;;
10333;SDS011;5212;47.892;16.406;2022-10-15T15:24:54;31.00;;;27.60;;
10333;SDS011;5212;47.892;16.406;2022-10-15T15:27:23;31.23;;;27.17;;
10333;SDS011;5212;47.892;16.406;2022-10-15T15:35:05;27.43;;;24.33;;
10333;SDS011;5212;47.892;16.406;2022-10-15T15:40:18;29.60;;;26.40;;
10333;SDS011;5212;47.892;16.406;2022-10-15T15:42:53;31.87;;;27.77;;
10333;SDS011;5212;47.892;16.406;2022-10-15T15:47:50;30.90;;;26.77;;
10333;SDS011;5212;47.892;16.406;2022-10-15T15:50:18;36.83;;;30.60;;
10333;SDS011;5212;47.892;16.406;2022-10-15T15:52:46;31.77;;;27.43;;
10333;SDS011;5212;47.892;16.406;2022-10-15T15:55:13;31.27;;;27.33;;
10333;SDS011;5212;47.892;16.406;2022-10-15T15:57:42;34.53;;;30.13;;
10333;SDS011;5212;47.892;16.406;2022-10-15T16:00:09;29.53;;;26.33;;
10333;SDS011;5212;47.892;16.406;2022-10-15T16:02:37;29.87;;;26.30;;
10333;SDS011;5212;47.892;16.406;2022-10-15T16:05:05;30.27;;;26.30;;
10333;SDS011;5212;47.892;16.406;2022-10-15T16:07:33;29.43;;;26.03;;
10333;SDS011;5212;47.892;16.406;2022-10-15T16:10:00;29.30;;;25.00;;
10333;SDS011;5212;47.892;16.406;2022-10-15T16:12:30;29.00;;;25.17;;
10333;SDS011;5212;47.892;16.406;2022-10-15T18:14:55;27.73;;;24.33;;
10333;SDS011;5212;47.892;16.406;2022-10-15T18:17:22;30.57;;;25.53;;
10333;SDS011;5212;47.892;16.406;2022-10-15T18:19:49;26.27;;;23.43;;
10333;SDS011;5212;47.892;16.406;2022-10-15T18:22:16;29.60;;;26.13;;
10333;SDS011;5212;47.892;16.406;2022-10-15T18:24:44;32.37;;;27.77;;
10333;SDS011;5212;47.892;16.406;2022-10-15T18:27:11;34.13;;;28.63;;
10333;SDS011;5212;47.892;16.406;2022-10-15T18:29:38;31.77;;;27.00;;
10333;SDS011;5212;47.892;16.406;2022-10-15T18:32:07;29.83;;;26.63;;
10333;SDS011;5212;47.892;16.406;2022-10-15T18:34:34;30.50;;;27.17;;
10333;SDS011;5212;47.892;16.406;2022-10-15T18:37:01;31.80;;;27.67;;
10333;SDS011;5212;47.892;16.406;2022-10-15T18:39:28;29.43;;;25.90;;
10333;SDS011;5212;47.892;16.406;2022-10-15T18:41:54;31.60;;;27.10;;
10333;SDS011;5212;47.892;16.406;2022-10-15T18:49:33;29.37;;;25.27;;
10333;SDS011;5212;47.892;16.406;2022-10-15T18:52:00;37.43;;;30.30;;
10333;SDS011;5212;47.892;16.406;2022-10-15T19:02:10;30.23;;;26.37;;
10333;SDS011;5212;47.892;16.406;2022-10-15T19:04:39;28.60;;;25.50;;
10333;SDS011;5212;47.892;16.406;2022-10-15T19:07:05;27.57;;;24.20;;
10333;SDS011;5212;47.892;16.406;2022-10-15T19:09:32;27.73;;;24.37;;
10333;SDS011;5212;47.892;16.406;2022-10-15T19:14:34;26.43;;;23.57;;
10333;SDS011;5212;47.892;16.406;2022-10-15T19:17:01;25.77;;;23.07;;
10333;SDS011;5212;47.892;16.406;2022-10-15T19:24:36;30.47;;;26.33;;
10333;SDS011;5212;47.892;16.406;2022-10-15T19:27:03;30.63;;;26.80;;
10333;SDS011;5212;47.892;16.406;2022-10-15T19:29:32;29.87;;;26.47;;
10333;SDS011;5212;47.892;16.406;2022-10-15T19:31:59;34.00;;;29.30;;
10333;SDS011;5212;47.892;16.406;2022-10-15T19:34:27;37.47;;;31.23;;
10333;SDS011;5212;47.892;16.406;2022-10-15T19:36:54;42.27;;;33.80;;
10333;SDS011;5212;47.892;16.406;2022-10-15T19:39:22;37.87;;;31.30;;
10333;SDS011;5212;47.892;16.406;2022-10-15T19:41:50;34.90;;;29.43;;
10333;SDS011;5212;47.892;16.406;2022-10-15T19:44:18;30.73;;;26.03;;
10333;SDS011;5212;47.892;16.406;2022-10-15T19:49:17;32.90;;;27.50;;
10333;SDS011;5212;47.892;16.406;2022-10-15T20:02:01;31.13;;;26.47;;
10333;SDS011;5212;47.892;16.406;2022-10-15T20:04:28;33.47;;;28.50;;
10333;SDS011;5212;47.892;16.406;2022-10-15T20:06:54;30.23;;;26.60;;
10333;SDS011;5212;47.892;16.406;2022-10-15T20:09:21;29.77;;;25.80;;
10333;SDS011;5212;47.892;16.406;2022-10-15T20:11:51;28.50;;;25.23;;
10333;SDS011;5212;47.892;16.406;2022-10-15T20:14:18;30.23;;;25.90;;
10333;SDS011;5212;47.892;16.406;2022-10-15T20:16:45;31.27;;;26.73;;
10333;SDS011;5212;47.892;16.406;2022-10-15T20:19:14;27.70;;;24.70;;
10333;SDS011;5212;47.892;16.406;2022-10-15T20:21:41;31.97;;;27.07;;
10333;SDS011;5212;47.892;16.406;2022-10-15T20:24:08;29.97;;;25.83;;
10333;SDS011;5212;47.892;16.406;2022-10-15T20:26:34;31.90;;;27.83;;
10333;SDS011;5212;47.892;16.406;2022-10-15T20:29:02;32.07;;;28.43;;
10333;SDS011;5212;47.892;16.406;2022-10-15T21:10:20;25.03;;;22.33;;
10333;SDS011;5212;47.892;16.406;2022-10-15T21:30:48;25.60;;;22.73;;
10333;SDS011;5212;47.892;16.406;2022-10-15T21:59:04;28.97;;;24.67;;
10333;SDS011;5212;47.892;16.406;2022-10-15T22:01:33;30.50;;;26.40;;
10333;SDS011;5212;47.892;16.406;2022-10-15T22:04:23;28.47;;;24.20;;
10333;SDS011;5212;47.892;16.406;2022-10-15T22:06:50;26.73;;;23.00;;
10333;SDS011;5212;47.892;16.406;2022-10-15T22:09:17;31.83;;;25.13;;
10333;SDS011;5212;47.892;16.406;2022-10-15T22:11:44;29.73;;;24.03;;
10333;SDS011;5212;47.892;16.406;2022-10-15T22:14:12;30.43;;;25.63;;
10333;SDS011;5212;47.892;16.406;2022-10-15T22:16:40;26.53;;;23.00;;
10333;SDS011;5212;47.892;16.406;2022-10-15T22:19:07;25.23;;;22.50;;
10333;SDS011;5212;47.892;16.406;2022-10-15T22:21:37;25.97;;;22.43;;
10333;SDS011;5212;47.892;16.406;2022-10-15T22:24:05;24.40;;;20.57;;
10333;SDS011;5212;47.892;16.406;2022-10-15T22:26:34;25.60;;;20.77;;
10333;SDS011;5212;47.892;16.406;2022-10-15T22:29:03;25.47;;;21.57;;
10333;SDS011;5212;47.892;16.406;2022-10-15T22:31:31;23.63;;;20.80;;
10333;SDS011;5212;47.892;16.406;2022-10-15T22:33:59;24.43;;;21.83;;
10333;SDS011;5212;47.892;16.406;2022-10-15T22:36:26;27.27;;;23.40;;
10333;SDS011;5212;47.892;16.406;2022-10-15T22:38:56;26.57;;;23.23;;
10333;SDS011;5212;47.892;16.406;2022-10-15T22:41:26;26.00;;;21.83;;
10333;SDS011;5212;47.892;16.406;2022-10-15T22:43:53;23.03;;;20.53;;
10333;SDS011;5212;47.892;16.406;2022-10-15T22:46:20;24.77;;;21.00;;
10333;SDS011;5212;47.892;16.406;2022-10-15T22:48:47;23.07;;;20.03;;
10333;SDS011;5212;47.892;16.406;2022-10-15T22:51:14;23.60;;;19.90;;
10333;SDS011;5212;47.892;16.406;2022-10-15T22:53:41;24.93;;;20.60;;
10333;SDS011;5212;47.892;16.406;2022-10-15T22:56:11;22.97;;;20.20;;
10333;SDS011;5212;47.892;16.406;2022-10-15T22:58:39;24.30;;;21.00;;
10333;SDS011;5212;47.892;16.406;2022-10-15T23:01:07;24.37;;;19.90;;
10333;SDS011;5212;47.892;16.406;2022-10-15T23:03:36;20.87;;;18.30;;
10333;SDS011;5212;47.892;16.406;2022-10-15T23:06:03;25.50;;;21.33;;
10333;SDS011;5212;47.892;16.406;2022-10-15T23:08:31;26.90;;;23.03;;
10333;SDS011;5212;47.892;16.406;2022-10-15T23:11:03;26.87;;;22.20;;
10333;SDS011;5212;47.892;16.406;2022-10-15T23:13:34;25.40;;;22.20;;
10333;SDS011;5212;47.892;16.406;2022-10-15T23:16:08;23.60;;;20.03;;
10333;SDS011;5212;47.892;16.406;2022-10-15T23:18:38;24.17;;;20.57;;
10333;SDS011;5212;47.892;16.406;2022-10-15T23:21:06;23.50;;;20.93;;
10333;SDS011;5212;47.892;16.406;2022-10-15T23:23:37;24.17;;;21.27;;
10333;SDS011;5212;47.892;16.406;2022-10-15T23:26:04;23.63;;;20.97;;
10333;SDS011;5212;47.892;16.406;2022-10-15T23:28:31;24.80;;;21.20;;
10333;SDS011;5212;47.892;16.406;2022-10-15T23:31:00;23.10;;;18.93;;
10333;SDS011;5212;47.892;16.406;2022-10-15T23:33:27;22.50;;;19.83;;
10333;SDS011;5212;47.892;16.406;2022-10-15T23:35:55;22.07;;;19.67;;
10333;SDS011;5212;47.892;16.406;2022-10-15T23:38:23;22.73;;;19.37;;
10333;SDS011;5212;47.892;16.406;2022-10-15T23:40:50;23.77;;;21.00;;
10333;SDS011;5212;47.892;16.406;2022-10-15T23:43:17;26.40;;;21.57;;
10333;SDS011;5212;47.892;16.406;2022-10-15T23:45:44;24.07;;;21.37;;
10333;SDS011;5212;47.892;16.406;2022-10-15T23:48:12;25.13;;;21.77;;
10333;SDS011;5212;47.892;16.406;2022-10-15T23:50:39;22.07;;;19.23;;
10333;SDS011;5212;47.892;16.406;2022-10-15T23:53:06;22.90;;;19.20;;
10333;SDS011;5212;47.892;16.406;2022-10-15T23:55:36;20.60;;;18.23;;
10333;SDS011;5212;47.892;16.406;2022-10-15T23:58:03;24.57;;;18.73;;
